Time,TemperatureF,DewpointF,PressureIn,WindDirection,WindDirectionDegrees,WindSpeedMPH,WindSpeedGustMPH,Humidity,HourlyPrecipIn,Conditions,Clouds,dailyrainin,SoftwareType,DateUTC
2013-04-06 00:08:00,55.7,32.0,30.17,NNW,335,3.0,5.0,40,0.00,,,0.00,weatherlink.com 1.10,2013-04-06 04:08:00,
2013-04-06 00:23:00,55.9,32.0,30.17,NW,323,2.0,4.0,40,0.00,,,0.00,weatherlink.com 1.10,2013-04-06 04:23:00,
2013-04-06 00:38:00,55.7,32.0,30.18,NNW,332,2.0,3.0,40,0.00,,,0.00,weatherlink.com 1.10,2013-04-06 04:38:00,
2013-04-06 00:53:00,55.5,32.0,30.18,NW,318,2.0,2.0,41,0.00,,,0.00,weatherlink.com 1.10,2013-04-06 04:53:00,
2013-04-06 01:08:00,55.1,32.0,30.17,North,1,1.0,3.0,41,0.00,,,0.00,weatherlink.com 1.10,2013-04-06 05:08:00,
2013-04-06 01:23:00,55.1,32.0,30.17,NNW,328,3.0,3.0,41,0.00,,,0.00,weatherlink.com 1.10,2013-04-06 05:23:00,
2013-04-06 02:09:00,52.6,33.0,30.17,ESE,105,2.0,2.0,48,0.00,,,0.00,weatherlink.com 1.10,2013-04-06 06:09:00,
2013-04-06 02:38:00,52.5,34.0,30.17,South,169,4.0,5.0,49,0.00,,,0.00,weatherlink.com 1.10,2013-04-06 06:38:00,
2013-04-06 02:54:00,53.0,33.0,30.17,SE,146,1.0,3.0,47,0.00,,,0.00,weatherlink.com 1.10,2013-04-06 06:54:00,
2013-04-06 03:39:00,49.0,35.0,30.17,SSE,148,2.0,4.0,59,0.00,,,0.00,weatherlink.com 1.10,2013-04-06 07:39:00,
2013-04-06 03:54:00,50.6,34.0,30.17,West,278,1.0,3.0,53,0.00,,,0.00,weatherlink.com 1.10,2013-04-06 07:54:00,
2013-04-06 04:09:00,49.4,34.0,30.17,West,281,1.0,2.0,55,0.00,,,0.00,weatherlink.com 1.10,2013-04-06 08:09:00,
2013-04-06 05:09:00,46.5,38.0,30.18,SSE,154,2.0,3.0,71,0.00,,,0.00,weatherlink.com 1.10,2013-04-06 09:09:00,
2013-04-06 05:24:00,47.7,36.0,30.18,South,186,2.0,4.0,65,0.00,,,0.00,weatherlink.com 1.10,2013-04-06 09:24:00,
2013-04-06 05:54:00,47.7,36.0,30.19,SW,224,2.0,3.0,65,0.00,,,0.00,weatherlink.com 1.10,2013-04-06 09:54:00,
2013-04-06 06:24:00,46.3,36.0,30.19,SE,124,0.0,0.0,68,0.00,,,0.00,weatherlink.com 1.10,2013-04-06 10:24:00,
2013-04-06 06:39:00,46.6,36.0,30.20,NE,46,0.0,0.0,67,0.00,,,0.00,weatherlink.com 1.10,2013-04-06 10:39:00,
2013-04-06 06:57:00,46.4,37.0,30.21,NE,35,1.0,2.0,69,0.00,,,0.00,weatherlink.com 1.10,2013-04-06 10:57:00,
2013-04-06 07:09:00,46.9,37.0,30.21,SE,127,2.0,2.0,69,0.00,,,0.00,weatherlink.com 1.10,2013-04-06 11:09:00,
2013-04-06 07:24:00,45.6,36.0,30.22,East,93,1.0,3.0,69,0.00,,,0.00,weatherlink.com 1.10,2013-04-06 11:24:00,
2013-04-06 07:39:00,44.1,36.0,30.23,ENE,77,4.0,6.0,74,0.00,,,0.00,weatherlink.com 1.10,2013-04-06 11:39:00,
2013-04-06 07:54:00,44.2,37.0,30.23,East,91,4.0,6.0,75,0.00,,,0.00,weatherlink.com 1.10,2013-04-06 11:54:00,
2013-04-06 08:09:00,45.1,37.0,30.24,ENE,76,5.0,6.0,73,0.00,,,0.00,weatherlink.com 1.10,2013-04-06 12:09:00,
2013-04-06 08:24:00,45.9,37.0,30.25,ESE,104,3.0,6.0,72,0.00,,,0.00,weatherlink.com 1.10,2013-04-06 12:24:00,
2013-04-06 08:55:00,47.5,38.0,30.25,ESE,112,3.0,7.0,70,0.00,,,0.00,weatherlink.com 1.10,2013-04-06 12:55:00,
2013-04-06 09:09:00,48.2,38.0,30.25,ENE,62,5.0,7.0,68,0.00,,,0.00,weatherlink.com 1.10,2013-04-06 13:09:00,
2013-04-06 09:24:00,49.3,37.0,30.25,ESE,106,4.0,7.0,64,0.00,,,0.00,weatherlink.com 1.10,2013-04-06 13:24:00,
2013-04-06 09:40:00,50.9,39.0,30.25,ESE,116,4.0,7.0,64,0.00,,,0.00,weatherlink.com 1.10,2013-04-06 13:40:00,
2013-04-06 09:54:00,53.4,39.0,30.26,East,94,0.0,5.0,58,0.00,,,0.00,weatherlink.com 1.10,2013-04-06 13:54:00,
2013-04-06 10:12:00,55.9,39.0,30.25,East,80,0.0,5.0,53,0.00,,,0.00,weatherlink.com 1.10,2013-04-06 14:12:00,
2013-04-06 10:24:00,54.5,38.0,30.25,ESE,119,5.0,9.0,55,0.00,,,0.00,weatherlink.com 1.10,2013-04-06 14:24:00,
2013-04-06 10:39:00,55.4,38.0,30.26,SSE,167,4.0,10.0,53,0.00,,,0.00,weatherlink.com 1.10,2013-04-06 14:39:00,
2013-04-06 10:54:00,57.0,39.0,30.26,ESE,114,7.0,9.0,52,0.00,,,0.00,weatherlink.com 1.10,2013-04-06 14:54:00,
2013-04-06 11:09:00,58.4,39.0,30.25,ESE,105,3.0,8.0,49,0.00,,,0.00,weatherlink.com 1.10,2013-04-06 15:09:00,
2013-04-06 11:27:00,59.7,39.0,30.25,SE,139,0.0,6.0,46,0.00,,,0.00,weatherlink.com 1.10,2013-04-06 15:27:00,
2013-04-06 11:39:00,61.6,38.0,30.25,SSE,151,2.0,8.0,42,0.00,,,0.00,weatherlink.com 1.10,2013-04-06 15:39:00,
2013-04-06 11:55:00,62.4,36.0,30.25,SE,127,1.0,7.0,38,0.00,,,0.00,weatherlink.com 1.10,2013-04-06 15:55:00,
2013-04-06 12:10:00,64.8,37.0,30.25,SSE,164,2.0,8.0,36,0.00,,,0.00,weatherlink.com 1.10,2013-04-06 16:10:00,
2013-04-06 12:25:00,65.4,38.0,30.24,East,87,4.0,9.0,36,0.00,,,0.00,weatherlink.com 1.10,2013-04-06 16:25:00,
2013-04-06 12:40:00,64.7,36.0,30.24,SE,139,4.0,11.0,34,0.00,,,0.00,weatherlink.com 1.10,2013-04-06 16:40:00,
2013-04-06 12:55:00,67.8,35.0,30.23,SE,143,3.0,8.0,30,0.00,,,0.00,weatherlink.com 1.10,2013-04-06 16:55:00,
2013-04-06 13:11:00,66.7,32.0,30.23,ESE,113,8.0,11.0,28,0.00,,,0.00,weatherlink.com 1.10,2013-04-06 17:11:00,
2013-04-06 13:25:00,66.8,34.0,30.22,ESE,105,3.0,9.0,30,0.00,,,0.00,weatherlink.com 1.10,2013-04-06 17:25:00,
2013-04-06 13:40:00,67.7,32.0,30.21,South,184,4.0,14.0,27,0.00,,,0.00,weatherlink.com 1.10,2013-04-06 17:40:00,
2013-04-06 13:55:00,69.1,33.0,30.20,ESE,113,6.0,11.0,26,0.00,,,0.00,weatherlink.com 1.10,2013-04-06 17:55:00,
2013-04-06 14:10:00,68.1,31.0,30.20,South,191,7.0,12.0,25,0.00,,,0.00,weatherlink.com 1.10,2013-04-06 18:10:00,
2013-04-06 14:25:00,69.0,33.0,30.19,NE,35,1.0,12.0,26,0.00,,,0.00,weatherlink.com 1.10,2013-04-06 18:25:00,
2013-04-06 14:40:00,68.2,36.0,30.18,SW,229,7.0,14.0,30,0.00,,,0.00,weatherlink.com 1.10,2013-04-06 18:40:00,
2013-04-06 14:55:00,69.6,38.0,30.18,East,96,4.0,13.0,31,0.00,,,0.00,weatherlink.com 1.10,2013-04-06 18:55:00,
2013-04-06 15:10:00,69.7,37.0,30.17,WNW,298,5.0,15.0,30,0.00,,,0.00,weatherlink.com 1.10,2013-04-06 19:10:00,
2013-04-06 15:25:00,69.8,38.0,30.16,West,259,3.0,13.0,31,0.00,,,0.00,weatherlink.com 1.10,2013-04-06 19:25:00,
2013-04-06 15:40:00,70.2,37.0,30.15,West,264,7.0,10.0,30,0.00,,,0.00,weatherlink.com 1.10,2013-04-06 19:40:00,
2013-04-06 15:55:00,68.8,38.0,30.14,WNW,284,2.0,12.0,32,0.00,,,0.00,weatherlink.com 1.10,2013-04-06 19:55:00,
2013-04-06 16:10:00,70.0,39.0,30.14,SE,146,5.0,7.0,32,0.00,,,0.00,weatherlink.com 1.10,2013-04-06 20:10:00,
2013-04-06 16:25:00,70.2,36.0,30.13,West,272,5.0,14.0,29,0.00,,,0.00,weatherlink.com 1.10,2013-04-06 20:25:00,
2013-04-06 16:40:00,70.3,36.0,30.12,WSW,247,2.0,11.0,29,0.00,,,0.00,weatherlink.com 1.10,2013-04-06 20:40:00,
2013-04-06 16:55:00,70.0,37.0,30.12,NNE,25,1.0,12.0,30,0.00,,,0.00,weatherlink.com 1.10,2013-04-06 20:55:00,
2013-04-06 17:10:00,69.4,37.0,30.12,WSW,237,2.0,12.0,31,0.00,,,0.00,weatherlink.com 1.10,2013-04-06 21:10:00,
2013-04-06 17:25:00,69.7,37.0,30.12,West,269,6.0,14.0,30,0.00,,,0.00,weatherlink.com 1.10,2013-04-06 21:25:00,
2013-04-06 17:40:00,68.6,37.0,30.12,West,272,10.0,15.0,31,0.00,,,0.00,weatherlink.com 1.10,2013-04-06 21:40:00,
2013-04-06 17:55:00,68.9,38.0,30.12,WNW,288,8.0,11.0,32,0.00,,,0.00,weatherlink.com 1.10,2013-04-06 21:55:00,
2013-04-06 18:10:00,68.5,38.0,30.12,NNW,333,1.0,8.0,33,0.00,,,0.00,weatherlink.com 1.10,2013-04-06 22:10:00,
2013-04-06 18:25:00,68.1,39.0,30.12,West,269,4.0,10.0,34,0.00,,,0.00,weatherlink.com 1.10,2013-04-06 22:25:00,
2013-04-06 18:40:00,68.3,39.0,30.12,WNW,290,4.0,9.0,34,0.00,,,0.00,weatherlink.com 1.10,2013-04-06 22:40:00,
2013-04-06 18:55:00,68.0,38.0,30.12,SSW,198,4.0,10.0,34,0.00,,,0.00,weatherlink.com 1.10,2013-04-06 22:55:00,
2013-04-06 19:10:00,67.7,39.0,30.12,SW,230,3.0,7.0,35,0.00,,,0.00,weatherlink.com 1.10,2013-04-06 23:10:00,
2013-04-06 19:25:00,67.3,39.0,30.12,WSW,254,3.0,5.0,35,0.00,,,0.00,weatherlink.com 1.10,2013-04-06 23:25:00,
2013-04-06 19:40:00,66.9,38.0,30.12,SW,229,7.0,11.0,35,0.00,,,0.00,weatherlink.com 1.10,2013-04-06 23:40:00,
2013-04-06 19:55:00,66.6,38.0,30.12,SW,236,6.0,8.0,35,0.00,,,0.00,weatherlink.com 1.10,2013-04-06 23:55:00,
2013-04-06 20:13:00,66.3,38.0,30.12,SW,233,4.0,6.0,35,0.00,,,0.00,weatherlink.com 1.10,2013-04-07 00:13:00,
2013-04-06 20:25:00,66.2,38.0,30.12,SW,222,7.0,8.0,35,0.00,,,0.00,weatherlink.com 1.10,2013-04-07 00:25:00,
2013-04-06 20:40:00,65.7,38.0,30.12,SSE,162,3.0,5.0,36,0.00,,,0.00,weatherlink.com 1.10,2013-04-07 00:40:00,
2013-04-06 20:55:00,65.5,38.0,30.12,SSE,158,1.0,5.0,36,0.00,,,0.00,weatherlink.com 1.10,2013-04-07 00:55:00,
2013-04-06 21:10:00,65.2,37.0,30.12,South,181,3.0,6.0,36,0.00,,,0.00,weatherlink.com 1.10,2013-04-07 01:10:00,
2013-04-06 21:25:00,65.0,37.0,30.12,South,170,5.0,6.0,36,0.00,,,0.00,weatherlink.com 1.10,2013-04-07 01:25:00,
2013-04-06 21:40:00,64.1,38.0,30.12,SSE,165,3.0,6.0,39,0.00,,,0.00,weatherlink.com 1.10,2013-04-07 01:40:00,
2013-04-06 21:55:00,63.8,39.0,30.12,South,184,4.0,7.0,40,0.00,,,0.00,weatherlink.com 1.10,2013-04-07 01:55:00,
2013-04-06 22:10:00,63.2,38.0,30.13,SW,231,4.0,7.0,40,0.00,,,0.00,weatherlink.com 1.10,2013-04-07 02:10:00,
2013-04-06 22:25:00,63.3,38.0,30.14,SW,236,3.0,8.0,39,0.00,,,0.00,weatherlink.com 1.10,2013-04-07 02:25:00,
2013-04-06 22:40:00,63.6,37.0,30.14,SSW,205,9.0,10.0,38,0.00,,,0.00,weatherlink.com 1.10,2013-04-07 02:40:00,
2013-04-06 22:55:00,62.8,38.0,30.14,SE,143,6.0,11.0,40,0.00,,,0.00,weatherlink.com 1.10,2013-04-07 02:55:00,
2013-04-06 23:10:00,61.8,38.0,30.14,ESE,113,6.0,10.0,42,0.00,,,0.00,weatherlink.com 1.10,2013-04-07 03:10:00,
2013-04-06 23:25:00,61.4,38.0,30.14,SSE,168,8.0,9.0,42,0.00,,,0.00,weatherlink.com 1.10,2013-04-07 03:25:00,
2013-04-06 23:40:00,61.0,38.0,30.14,South,174,7.0,10.0,42,0.00,,,0.00,weatherlink.com 1.10,2013-04-07 03:40:00,
2013-04-06 23:55:00,60.8,37.0,30.14,ENE,74,8.0,12.0,42,0.00,,,0.00,weatherlink.com 1.10,2013-04-07 03:55:00,